Time;durP1;ratioP1;P1;durP2;ratioP2;P2;SDS_P1;SDS_P2;PMS_P1;PMS_P2;Temp;Humidity;BMP_temperature;BMP_pressure;BME280_temperature;BME280_humidity;BME280_pressure;Samples;Min_cycle;Max_cycle;Signal;HPM_P1;HPM_P2
2023/07/26 00:01:32;;;;;;;35.22;12.93;;;;;;;25.05;100.00;99684.13;4918720;29;20055;-77
2023/07/26 00:03:58;;;;;;;22.17;11.52;;;;;;;25.02;100.00;99695.59;4935344;29;20036;-78
2023/07/26 00:06:29;;;;;;;29.75;12.50;;;;;;;25.01;100.00;99691.19;4934928;29;20055;-78
2023/07/26 00:08:54;;;;;;;37.60;14.82;;;;;;;24.96;100.00;99693.81;4934987;29;20119;-79
2023/07/26 00:11:20;;;;;;;33.78;12.80;;;;;;;24.88;100.00;99676.63;4934946;29;20146;-78
2023/07/26 00:13:45;;;;;;;29.15;12.43;;;;;;;24.84;100.00;99678.16;4934360;29;20122;-79
2023/07/26 00:16:11;;;;;;;33.30;14.35;;;;;;;24.81;100.00;99684.16;4934997;29;20035;-77
2023/07/26 00:18:39;;;;;;;41.25;14.27;;;;;;;24.76;100.00;99677.66;4935062;29;20062;-78
2023/07/26 00:21:05;;;;;;;29.40;12.75;;;;;;;24.77;100.00;99665.56;4934778;29;20031;-77
2023/07/26 00:23:30;;;;;;;25.92;13.25;;;;;;;24.72;100.00;99670.97;4934947;29;20039;-78
2023/07/26 00:25:56;;;;;;;33.33;14.40;;;;;;;24.77;100.00;99671.91;4935004;29;20032;-78
2023/07/26 00:28:22;;;;;;;31.33;12.63;;;;;;;24.79;100.00;99680.78;4934430;29;20119;-78
2023/07/26 00:30:49;;;;;;;35.22;14.50;;;;;;;24.79;100.00;99675.28;4934896;29;20028;-80
2023/07/26 00:33:14;;;;;;;22.75;12.55;;;;;;;24.76;100.00;99656.50;4934075;29;20101;-78
2023/07/26 00:35:41;;;;;;;28.30;13.48;;;;;;;24.75;100.00;99660.31;4934185;29;20035;-78
2023/07/26 00:38:07;;;;;;;30.65;13.45;;;;;;;24.74;100.00;99661.38;4933719;29;20027;-78
2023/07/26 00:40:32;;;;;;;30.42;13.02;;;;;;;24.69;100.00;99661.28;4933402;29;20060;-80
2023/07/26 00:42:58;;;;;;;31.55;12.63;;;;;;;24.72;100.00;99669.06;4934062;29;20039;-78
2023/07/26 00:45:25;;;;;;;38.58;14.02;;;;;;;24.73;100.00;99670.75;4933590;29;20477;-78
2023/07/26 00:47:51;;;;;;;33.10;14.85;;;;;;;24.76;100.00;99661.16;4935261;29;20035;-78
2023/07/26 00:50:16;;;;;;;21.48;14.13;;;;;;;24.73;100.00;99657.00;4934830;29;20032;-78
2023/07/26 00:52:43;;;;;;;28.02;14.10;;;;;;;24.73;100.00;99646.00;4934971;29;20440;-78
2023/07/26 00:55:08;;;;;;;30.92;13.75;;;;;;;24.75;100.00;99641.06;4932881;29;20122;-79
2023/07/26 00:57:34;;;;;;;31.30;14.40;;;;;;;24.77;100.00;99649.06;4933835;29;20114;-78
2023/07/26 01:00:01;;;;;;;35.92;13.90;;;;;;;24.78;100.00;99650.75;4933527;29;20448;-78
2023/07/26 01:02:27;;;;;;;37.80;14.90;;;;;;;24.78;100.00;99642.50;4933250;29;20079;-78
2023/07/26 01:04:52;;;;;;;27.80;15.38;;;;;;;24.77;100.00;99638.91;4933996;29;20028;-77
2023/07/26 01:07:27;;;;;;;26.77;13.65;;;;;;;24.72;100.00;99626.97;4932629;29;20047;-78
2023/07/26 01:10:02;;;;;;;36.28;14.18;;;;;;;24.68;100.00;99621.09;4933618;29;20456;-78
2023/07/26 01:12:36;;;;;;;41.13;13.88;;;;;;;24.70;100.00;99621.72;4933323;29;20042;-77
2023/07/26 01:15:07;;;;;;;34.92;16.13;;;;;;;24.69;100.00;99622.78;4934239;29;20038;-78
2023/07/26 01:17:32;;;;;;;40.78;15.73;;;;;;;24.69;100.00;99619.19;4933532;29;20035;-79
2023/07/26 01:19:58;;;;;;;28.08;13.25;;;;;;;24.68;100.00;99621.09;4934366;29;20452;-78
2023/07/26 01:22:24;;;;;;;32.47;14.25;;;;;;;24.70;100.00;99626.38;4934372;29;20082;-78
2023/07/26 01:24:49;;;;;;;35.28;15.10;;;;;;;24.69;100.00;99622.78;4933336;29;20098;-79
2023/07/26 01:27:15;;;;;;;26.73;13.88;;;;;;;24.68;100.00;99634.84;4933601;29;20036;-78
2023/07/26 01:29:40;;;;;;;31.35;14.95;;;;;;;24.67;100.00;99622.19;4933545;29;20027;-78
2023/07/26 01:32:12;;;;;;;28.55;14.90;;;;;;;24.67;100.00;99622.19;4934036;29;20028;-79
2023/07/26 01:34:38;;;;;;;37.80;13.98;;;;;;;24.63;100.00;99629.25;4933245;29;20047;-79
2023/07/26 01:37:04;;;;;;;24.52;14.38;;;;;;;24.62;100.00;99613.81;4934606;29;20405;-78
2023/07/26 01:39:30;;;;;;;32.97;15.25;;;;;;;24.63;100.00;99604.50;4949573;28;20101;-77
2023/07/26 01:41:57;;;;;;;28.55;14.20;;;;;;;24.59;100.00;99607.94;4950120;28;20040;-79
2023/07/26 01:44:23;;;;;;;35.90;14.77;;;;;;;24.59;100.00;99619.78;4952934;28;20050;-80
2023/07/26 01:46:52;;;;;;;23.40;13.13;;;;;;;24.54;100.00;99600.44;4955197;28;20036;-79
2023/07/26 01:49:18;;;;;;;27.83;15.90;;;;;;;24.58;100.00;99607.16;4960545;28;20132;-80
2023/07/26 01:51:43;;;;;;;37.72;13.95;;;;;;;24.59;100.00;99597.81;4960424;28;20054;-78
2023/07/26 01:54:10;;;;;;;23.17;12.65;;;;;;;24.60;100.00;99601.38;4958872;28;20179;-81
2023/07/26 01:56:35;;;;;;;23.52;12.80;;;;;;;24.61;100.00;99605.81;4959236;28;20047;-78
2023/07/26 01:59:00;;;;;;;28.30;14.23;;;;;;;24.62;100.00;99597.31;4959074;28;20097;-80
2023/07/26 02:01:26;;;;;;;27.83;13.50;;;;;;;24.64;100.00;99594.34;4956189;28;20054;-78
2023/07/26 02:03:51;;;;;;;24.35;12.63;;;;;;;24.63;100.00;99593.50;4956113;28;20451;-79
2023/07/26 02:06:17;;;;;;;31.67;14.30;;;;;;;24.60;100.00;99587.66;4959577;28;20043;-77
2023/07/26 02:08:42;;;;;;;26.77;14.48;;;;;;;24.66;99.16;99600.44;4961898;28;20071;-79
2023/07/26 02:11:08;;;;;;;24.27;12.93;;;;;;;24.72;98.49;99597.56;4948995;28;20075;-78
2023/07/26 02:13:33;;;;;;;32.65;13.20;;;;;;;24.67;98.79;99594.69;4945900;29;20028;-78
2023/07/26 02:15:59;;;;;;;30.13;13.23;;;;;;;24.65;99.37;99591.34;4936241;29;20111;-78
2023/07/26 02:18:25;;;;;;;36.72;13.75;;;;;;;24.66;96.99;99590.28;4935354;29;20092;-78
2023/07/26 02:20:50;;;;;;;29.70;13.98;;;;;;;24.68;97.24;99601.84;4934934;29;20043;-79
2023/07/26 02:23:16;;;;;;;29.85;13.18;;;;;;;24.62;97.06;99602.81;4936047;29;20070;-78
2023/07/26 02:25:41;;;;;;;34.55;13.27;;;;;;;24.58;97.26;99590.66;4937932;29;20028;-77
2023/07/26 02:28:06;;;;;;;28.88;14.10;;;;;;;24.56;97.62;99603.78;4939404;29;20179;-79
2023/07/26 02:30:32;;;;;;;29.13;13.38;;;;;;;24.58;96.81;99601.66;4937989;29;20035;-77
2023/07/26 02:32:57;;;;;;;35.88;14.63;;;;;;;24.56;96.31;99598.28;4935380;29;20476;-78
2023/07/26 02:35:23;;;;;;;30.67;14.48;;;;;;;24.54;95.96;99594.94;4935552;29;20555;-77
2023/07/26 02:37:48;;;;;;;40.72;14.07;;;;;;;24.50;95.84;99585.50;4942457;29;20027;-79
2023/07/26 02:40:14;;;;;;;34.22;14.43;;;;;;;24.52;95.59;99586.13;4936515;29;20043;-78
2023/07/26 02:42:39;;;;;;;30.10;13.18;;;;;;;24.51;94.93;99583.59;4932221;29;20020;-79
2023/07/26 02:45:05;;;;;;;26.70;12.80;;;;;;;24.51;91.61;99584.44;4932740;29;20099;-78
2023/07/26 02:47:32;;;;;;;34.53;13.02;;;;;;;24.49;90.36;99580.25;4932595;29;20110;-78
2023/07/26 02:50:01;;;;;;;34.45;13.70;;;;;;;24.53;88.16;99585.00;4938371;29;20020;-79
2023/07/26 02:52:27;;;;;;;32.08;14.10;;;;;;;24.42;87.86;99580.38;4933878;29;20023;-77
2023/07/26 02:54:52;;;;;;;40.65;14.13;;;;;;;24.45;87.95;99571.66;4936565;29;20023;-77
2023/07/26 02:57:17;;;;;;;27.65;13.20;;;;;;;24.44;86.88;99582.88;4937384;29;20026;-79
2023/07/26 02:59:43;;;;;;;34.25;14.43;;;;;;;24.42;87.52;99580.38;4947883;29;20039;-79
2023/07/26 03:02:08;;;;;;;29.67;12.60;;;;;;;24.40;87.05;99579.78;4947403;29;20044;-80
2023/07/26 03:04:34;;;;;;;19.45;11.52;;;;;;;24.38;86.60;99580.00;4947991;29;20099;-78
2023/07/26 03:06:59;;;;;;;30.92;12.60;;;;;;;24.28;86.73;99570.69;4950813;29;20091;-83
2023/07/26 03:09:24;;;;;;;29.08;14.15;;;;;;;24.35;85.55;99555.75;4942466;29;20130;-76
2023/07/26 03:11:50;;;;;;;38.35;14.23;;;;;;;24.40;85.76;99571.53;4948579;29;20056;-79
2023/07/26 03:14:15;;;;;;;23.33;12.80;;;;;;;24.34;84.57;99564.25;4945589;29;20035;-78
2023/07/26 03:16:41;;;;;;;32.92;13.75;;;;;;;;;;4945116;29;20488;-80
2023/07/26 03:19:06;;;;;;;27.52;13.85;;;;;;;24.41;84.54;99575.94;4942745;29;20108;-80
2023/07/26 03:21:32;;;;;;;24.83;13.20;;;;;;;24.40;83.74;99568.78;4941889;29;20020;-78
2023/07/26 03:23:57;;;;;;;25.98;13.63;;;;;;;24.49;83.75;99570.09;4942180;29;20063;-77
2023/07/26 03:26:22;;;;;;;33.38;13.73;;;;;;;24.51;84.01;99576.19;4942682;29;20023;-80
2023/07/26 03:28:48;;;;;;;53.83;16.42;;;;;;;24.53;84.12;99570.44;4939769;29;20039;-77
2023/07/26 03:31:14;;;;;;;33.00;13.68;;;;;;;24.57;84.77;99571.63;4915350;29;20039;-77
2023/07/26 03:33:39;;;;;;;27.40;13.27;;;;;;;24.53;85.71;99556.69;4932663;29;20091;-79
2023/07/26 03:36:04;;;;;;;27.15;13.75;;;;;;;24.74;86.05;99569.78;4933487;29;20032;-81
2023/07/26 03:38:30;;;;;;;46.97;13.60;;;;;;;24.81;86.34;99579.63;4931975;29;20485;-79
2023/07/26 03:40:56;;;;;;;25.98;13.63;;;;;;;24.80;87.04;99575.16;4931818;29;20110;-81
2023/07/26 03:43:21;;;;;;;27.33;13.93;;;;;;;24.74;87.53;99562.38;4931661;29;20040;-80
2023/07/26 03:45:47;;;;;;;33.42;13.60;;;;;;;24.75;88.88;99557.72;4931822;29;20058;-79
2023/07/26 03:48:12;;;;;;;29.73;14.55;;;;;;;24.79;88.58;99562.50;4931433;29;20059;-80
2023/07/26 03:50:38;;;;;;;24.08;12.75;;;;;;;24.80;87.03;99561.41;4930727;29;20035;-77
2023/07/26 03:53:03;;;;;;;30.27;14.10;;;;;;;24.79;86.48;99558.91;4930531;29;20052;-79
2023/07/26 03:55:29;;;;;;;31.52;14.02;;;;;;;24.80;86.52;99561.41;4930407;29;20035;-78
2023/07/26 03:57:54;;;;;;;51.75;19.27;;;;;;;24.84;86.96;99570.06;4930753;29;20032;-78
2023/07/26 04:00:19;;;;;;;45.17;16.48;;;;;;;24.83;87.34;99555.47;4931154;29;20032;-78
2023/07/26 04:02:45;;;;;;;58.58;17.80;;;;;;;24.89;87.38;99562.75;4930881;29;20028;-78
2023/07/26 04:05:10;;;;;;;55.83;18.92;;;;;;;24.89;86.83;99551.72;4931036;29;20551;-77
2023/07/26 04:07:37;;;;;;;45.22;18.08;;;;;;;24.99;86.01;99562.13;4930877;29;20519;-79
2023/07/26 04:10:03;;;;;;;72.45;20.85;;;;;;;25.04;86.01;99562.25;4931389;29;20028;-78
2023/07/26 04:12:28;;;;;;;44.28;16.92;;;;;;;25.04;85.16;99558.66;4931058;29;20599;-80
2023/07/26 04:14:54;;;;;;;43.60;14.48;;;;;;;25.10;84.74;99563.16;4931485;29;20123;-80
2023/07/26 04:17:19;;;;;;;35.33;14.18;;;;;;;25.09;83.69;99558.75;4931139;29;20513;-80
2023/07/26 04:19:45;;;;;;;39.30;15.70;;;;;;;25.08;84.48;99562.56;4931566;29;20031;-78
2023/07/26 04:22:10;;;;;;;37.15;13.80;;;;;;;25.05;84.10;99563.03;4931221;29;20114;-78
2023/07/26 04:24:41;;;;;;;34.35;14.57;;;;;;;25.02;83.56;99558.88;4931438;29;20024;-82
2023/07/26 04:27:06;;;;;;;40.95;15.52;;;;;;;25.07;83.60;99566.41;4931356;29;20024;-78
2023/07/26 04:29:32;;;;;;;37.08;16.23;;;;;;;25.08;84.31;99559.81;4930600;29;20095;-78
2023/07/26 04:31:57;;;;;;;37.75;15.27;;;;;;;25.12;84.53;99564.59;4930869;29;20621;-78
2023/07/26 04:34:22;;;;;;;39.70;15.95;;;;;;;25.12;84.61;99552.75;4898058;29;20522;-78
2023/07/26 04:36:48;;;;;;;35.83;15.10;;;;;;;25.22;83.63;99561.22;4934016;29;20500;-80
2023/07/26 04:39:13;;;;;;;55.70;16.95;;;;;;;25.23;83.27;99554.59;4933797;29;20031;-79
2023/07/26 04:41:39;;;;;;;41.08;16.30;;;;;;;25.23;82.29;99540.84;4934132;29;20527;-81
2023/07/26 04:44:04;;;;;;;40.38;15.98;;;;;;;25.38;81.18;99552.16;4934031;29;20481;-79
2023/07/26 04:46:30;;;;;;;42.47;15.13;;;;;;;25.43;78.33;99549.50;4933634;29;20106;-80
2023/07/26 04:48:55;;;;;;;46.72;15.40;;;;;;;25.48;76.87;99552.34;4934178;29;20091;-78
2023/07/26 04:51:23;;;;;;;33.60;15.40;;;;;;;25.56;75.93;99563.00;4933602;29;20110;-79
2023/07/26 04:53:48;;;;;;;29.23;13.25;;;;;;;25.59;76.04;99554.25;4934016;29;20031;-79
2023/07/26 04:56:15;;;;;;;26.60;14.07;;;;;;;25.57;76.85;99542.63;4933554;29;20028;-78
2023/07/26 04:58:41;;;;;;;36.03;15.43;;;;;;;25.65;76.34;99553.25;4933953;29;20027;-80
2023/07/26 05:01:07;;;;;;;37.88;15.45;;;;;;;25.69;76.48;99553.56;4933535;29;20063;-80
2023/07/26 05:03:32;;;;;;;40.55;16.13;;;;;;;25.71;76.64;99552.25;4933428;29;20084;-79
2023/07/26 05:05:58;;;;;;;44.47;14.80;;;;;;;25.71;74.85;99551.41;4932073;29;20038;-83
2023/07/26 05:08:23;;;;;;;45.35;15.75;;;;;;;25.77;75.25;99559.50;4933385;29;20124;-79
2023/07/26 05:10:50;;;;;;;52.83;17.05;;;;;;;25.84;75.17;99551.91;4934328;29;20465;-80
2023/07/26 05:13:17;;;;;;;37.92;16.33;;;;;;;25.84;74.24;99551.91;4933692;29;20407;-80
2023/07/26 05:15:42;;;;;;;59.15;16.45;;;;;;;25.80;74.54;99539.72;4933637;29;20051;-81
2023/07/26 05:18:08;;;;;;;50.10;15.32;;;;;;;25.95;73.92;99552.91;4933573;29;20028;-80
2023/07/26 05:20:33;;;;;;;36.03;14.63;;;;;;;25.94;73.54;99549.31;4933428;29;20028;-81
2023/07/26 05:22:58;;;;;;;56.90;15.98;;;;;;;25.97;72.92;99543.31;4933553;29;20039;-81
2023/07/26 05:25:24;;;;;;;43.22;16.52;;;;;;;25.98;72.52;99544.16;4933674;29;20032;-82
2023/07/26 05:27:49;;;;;;;43.13;16.00;;;;;;;26.04;72.31;99550.56;4901517;29;20043;-82
2023/07/26 05:30:17;;;;;;;41.92;15.10;;;;;;;26.03;72.49;99548.88;4934445;29;20032;-81
2023/07/26 05:32:44;;;;;;;182.93;33.72;;;;;;;26.02;72.68;99547.25;4937245;29;20510;-81
2023/07/26 05:35:12;;;;;;;43.20;14.55;;;;;;;25.96;72.20;99533.38;4933181;29;20488;-81
2023/07/26 05:37:37;;;;;;;44.85;15.85;;;;;;;26.03;72.66;99532.34;4933302;29;20034;-82
2023/07/26 05:40:05;;;;;;;45.50;14.85;;;;;;;26.09;73.46;99532.19;4933353;29;20035;-82
2023/07/26 05:42:31;;;;;;;47.60;15.60;;;;;;;26.16;74.70;99534.81;4946988;29;20571;-82
2023/07/26 05:44:56;;;;;;;44.45;16.55;;;;;;;26.17;73.38;99531.81;4933390;29;20079;-82
2023/07/26 05:47:21;;;;;;;40.95;16.30;;;;;;;26.29;72.12;99529.78;4933174;29;20082;-83
2023/07/26 05:49:47;;;;;;;60.85;17.27;;;;;;;26.36;72.20;99529.59;4932165;29;20137;-82
2023/07/26 05:52:12;;;;;;;36.15;15.23;;;;;;;26.38;71.13;99524.66;4933403;29;20028;-83
2023/07/26 05:54:38;;;;;;;37.72;14.38;;;;;;;26.38;70.22;99530.19;4934004;29;20031;-83
2023/07/26 05:57:04;;;;;;;36.17;13.52;;;;;;;26.44;71.15;99534.69;4932663;29;20035;-83
2023/07/26 05:59:29;;;;;;;38.17;15.13;;;;;;;26.42;71.46;99528.59;4933518;29;20042;-83
2023/07/26 06:01:55;;;;;;;45.47;15.43;;;;;;;26.36;70.81;99519.38;4933461;29;20508;-83
2023/07/26 06:04:20;;;;;;;34.42;14.82;;;;;;;26.44;71.56;99518.97;4934515;29;20452;-83
2023/07/26 06:06:46;;;;;;;44.38;15.10;;;;;;;26.42;71.00;99520.31;4936652;29;20051;-84
2023/07/26 06:09:11;;;;;;;27.42;13.50;;;;;;;26.39;71.30;99512.56;4934842;29;20060;-84
2023/07/26 06:11:37;;;;;;;46.60;16.73;;;;;;;26.39;72.24;99501.53;4934607;29;20055;-83
2023/07/26 06:14:03;;;;;;;50.30;15.57;;;;;;;26.44;71.86;99521.72;4934648;29;20082;-83
2023/07/26 06:16:28;;;;;;;31.15;14.63;;;;;;;26.48;71.19;99511.03;4934403;29;20423;-83
2023/07/26 06:18:54;;;;;;;30.58;14.52;;;;;;;26.49;71.07;99520.94;4934398;29;20463;-83
2023/07/26 06:21:19;;;;;;;30.13;14.98;;;;;;;26.50;72.05;99511.59;4933659;29;20122;-84
2023/07/26 06:23:46;;;;;;;41.92;15.25;;;;;;;26.47;72.19;99501.06;4934600;29;20028;-83
2023/07/26 06:26:11;;;;;;;35.67;14.38;;;;;;;26.52;72.89;99510.25;4934522;29;20032;-83
2023/07/26 06:28:37;;;;;;;34.50;14.90;;;;;;;26.47;73.97;99506.59;4934022;29;20090;-87
2023/07/26 06:31:03;;;;;;;29.15;14.00;;;;;;;26.45;74.03;99509.59;4934612;29;20094;-85
2023/07/26 06:33:29;;;;;;;31.55;15.35;;;;;;;26.43;74.61;99511.78;4935467;29;20466;-85
2023/07/26 06:35:55;;;;;;;36.88;15.90;;;;;;;26.43;74.13;99513.69;4933862;29;20464;-85
2023/07/26 06:38:21;;;;;;;43.65;17.15;;;;;;;26.49;75.19;99520.94;4934090;29;20097;-88
2023/07/26 06:40:47;;;;;;;40.53;15.07;;;;;;;26.55;75.49;99519.94;4931964;29;20040;-85
2023/07/26 06:43:13;;;;;;;34.17;14.38;;;;;;;26.57;76.02;99506.75;4933804;29;20035;-86
2023/07/26 06:45:38;;;;;;;32.20;15.82;;;;;;;26.64;76.21;99512.03;4932389;29;20050;-85
2023/07/26 06:48:04;;;;;;;38.15;15.90;;;;;;;26.66;75.27;99521.75;4932001;29;20111;-87
2023/07/26 06:50:29;;;;;;;30.88;15.15;;;;;;;26.60;74.47;99497.94;4929729;29;20099;-85
2023/07/26 06:52:55;;;;;;;37.60;15.18;;;;;;;26.70;74.96;99506.34;4931969;29;20400;-85
2023/07/26 06:55:20;;;;;;;46.20;16.52;;;;;;;26.76;74.75;99516.34;4932486;29;20528;-85
2023/07/26 06:57:46;;;;;;;26.15;15.13;;;;;;;26.80;75.34;99523.06;4931675;29;20095;-86
2023/07/26 07:00:14;;;;;;;33.03;15.18;;;;;;;26.79;75.22;99506.72;4931810;29;20024;-85
2023/07/26 07:02:40;;;;;;;37.08;15.82;;;;;;;26.78;76.68;99492.09;4934384;29;20028;-86
2023/07/26 07:05:06;;;;;;;39.30;16.70;;;;;;;26.88;76.19;99514.31;4935512;29;20059;-85
2023/07/26 07:07:31;;;;;;;33.30;15.60;;;;;;;26.90;76.24;99509.38;4935591;29;20440;-85
2023/07/26 07:09:57;;;;;;;36.08;16.27;;;;;;;26.98;76.04;99517.19;4934013;29;20154;-87
2023/07/26 07:12:23;;;;;;;43.15;16.45;;;;;;;27.10;75.82;99521.72;4934904;29;20447;-89
2023/07/26 07:14:48;;;;;;;35.17;14.70;;;;;;;27.09;74.45;99501.59;4934895;29;20087;-87
2023/07/26 07:17:13;;;;;;;43.05;16.45;;;;;;;27.19;74.41;99509.13;4933090;29;20074;-86
2023/07/26 07:19:39;;;;;;;38.60;16.75;;;;;;;27.13;74.69;99499.13;4932767;29;20584;-86
2023/07/26 07:22:05;;;;;;;49.20;16.27;;;;;;;27.20;74.20;99495.09;4933594;29;20071;-86
2023/07/26 07:24:30;;;;;;;38.65;15.35;;;;;;;27.25;72.11;99497.88;4932761;29;20039;-86
2023/07/26 07:26:55;;;;;;;55.33;18.27;;;;;;;27.34;72.65;99506.53;4935084;29;20031;-86
2023/07/26 07:29:21;;;;;;;43.83;17.40;;;;;;;27.39;72.93;99509.34;4936958;29;20036;-85
2023/07/26 07:35:08;;;;;;;32.30;15.93;;;;;;;27.34;70.94;99478.91;4950109;29;20088;-86
2023/07/26 07:37:33;;;;;;;37.38;15.73;;;;;;;27.43;70.93;99488.44;4949528;29;20534;-86
2023/07/26 07:40:03;;;;;;;25.58;15.02;;;;;;;27.42;69.97;99486.75;4949108;29;20070;-86
2023/07/26 07:42:30;;;;;;;43.45;17.00;;;;;;;27.41;70.88;99490.59;4933561;29;20040;-86
2023/07/26 07:44:55;;;;;;;33.00;16.40;;;;;;;27.42;70.30;99486.75;4951411;29;20563;-86
2023/07/26 07:47:21;;;;;;;34.45;15.63;;;;;;;27.33;69.71;99472.59;4963581;28;20062;-86
2023/07/26 07:49:46;;;;;;;77.10;22.02;;;;;;;27.37;70.41;99490.28;4973727;28;20212;-87
2023/07/26 07:52:12;;;;;;;43.38;16.83;;;;;;;27.47;70.12;99495.94;4972656;29;20035;-88
2023/07/26 07:54:37;;;;;;;73.93;20.02;;;;;;;27.46;70.05;99488.72;4962930;29;20031;-87
2023/07/26 07:57:03;;;;;;;31.45;15.32;;;;;;;27.44;70.40;99468.00;4956041;29;20063;-86
2023/07/26 07:59:29;;;;;;;54.42;17.48;;;;;;;27.59;70.07;99479.19;4940898;29;20067;-85
2023/07/26 08:01:54;;;;;;;33.08;17.55;;;;;;;27.59;69.67;99465.38;4951343;29;20547;-84
2023/07/26 08:04:21;;;;;;;41.05;17.85;;;;;;;27.62;68.19;99464.00;4916524;29;20039;-84
2023/07/26 08:06:46;;;;;;;41.95;15.18;;;;;;;27.72;67.90;99459.41;4933760;29;20027;-85
2023/07/26 08:09:11;;;;;;;80.35;19.13;;;;;;;27.78;68.17;99458.34;4933712;29;20031;-85
2023/07/26 08:11:37;;;;;;;35.25;15.63;;;;;;;27.95;68.14;99447.16;4936124;29;20031;-84
2023/07/26 08:14:03;;;;;;;38.85;16.17;;;;;;;28.09;65.87;99443.66;4937085;29;20030;-86
2023/07/26 08:16:29;;;;;;;24.80;13.90;;;;;;;28.07;64.94;99440.31;4942463;29;20098;-85
2023/07/26 08:18:54;;;;;;;46.25;17.67;;;;;;;28.17;64.27;99434.00;4944511;29;20062;-86
2023/07/26 08:21:19;;;;;;;24.45;14.55;;;;;;;28.29;64.78;99433.78;4935893;29;20032;-85
2023/07/26 08:23:45;;;;;;;39.40;15.52;;;;;;;28.37;64.16;99416.69;4934568;29;20051;-86
2023/07/26 08:26:10;;;;;;;32.00;14.45;;;;;;;28.60;62.69;99432.81;4934750;29;20074;-85
2023/07/26 08:28:36;;;;;;;33.25;14.07;;;;;;;28.68;62.38;99423.22;4934567;29;20043;-85
2023/07/26 08:31:02;;;;;;;38.92;14.10;;;;;;;28.81;61.50;99423.50;4932977;29;20151;-86
2023/07/26 08:33:27;;;;;;;44.95;14.95;;;;;;;28.95;61.13;99424.69;4934639;29;20023;-85
2023/07/26 08:35:55;;;;;;;45.75;15.52;;;;;;;29.10;60.14;99429.41;4934683;29;20419;-85
2023/07/26 08:38:22;;;;;;;45.08;16.63;;;;;;;29.16;59.59;99417.22;4934514;29;20571;-85
2023/07/26 08:40:50;;;;;;;31.33;12.90;;;;;;;29.08;58.12;99420.53;4936022;29;20492;-85
2023/07/26 08:43:18;;;;;;;30.75;15.32;;;;;;;28.90;57.87;99416.34;4946308;29;20031;-85
2023/07/26 08:45:44;;;;;;;42.10;13.57;;;;;;;28.92;57.84;99422.44;4936607;29;20038;-83
2023/07/26 08:48:10;;;;;;;25.67;12.15;;;;;;;29.00;57.23;99418.31;4935222;29;20036;-85
2023/07/26 08:50:38;;;;;;;40.25;15.63;;;;;;;29.04;57.88;99400.88;4934477;29;20043;-84
2023/07/26 08:53:08;;;;;;;50.30;16.40;;;;;;;29.20;57.09;99406.44;4934179;29;20083;-84
2023/07/26 08:55:35;;;;;;;31.27;14.15;;;;;;;29.29;56.31;99413.94;4934699;29;20042;-85
2023/07/26 08:58:00;;;;;;;37.22;15.15;;;;;;;29.31;56.52;99399.81;4934250;29;20119;-84
2023/07/26 09:00:27;;;;;;;29.75;12.82;;;;;;;29.38;55.38;99400.38;4934240;29;20052;-87
2023/07/26 09:02:55;;;;;;;28.65;14.00;;;;;;;29.43;56.04;99403.97;4934719;29;20115;-85
2023/07/26 09:05:20;;;;;;;33.00;14.30;;;;;;;29.46;55.99;99397.88;4932590;29;20032;-85
2023/07/26 09:07:46;;;;;;;29.63;14.98;;;;;;;29.32;56.71;99396.78;4934111;29;20438;-85
2023/07/26 09:10:11;;;;;;;35.13;13.63;;;;;;;29.28;57.88;99389.28;4916941;29;20023;-85
2023/07/26 09:12:37;;;;;;;135.88;27.95;;;;;;;29.24;57.72;99391.78;4933601;29;20032;-85
2023/07/26 09:15:07;;;;;;;44.22;15.10;;;;;;;29.20;56.40;99392.59;4933871;29;20020;-86
2023/07/26 09:17:38;;;;;;;29.17;13.93;;;;;;;29.29;56.59;99390.97;4933274;29;20039;-86
2023/07/26 09:20:06;;;;;;;36.55;14.20;;;;;;;29.36;55.98;99385.94;4939968;29;20488;-86
2023/07/26 09:22:31;;;;;;;29.25;14.55;;;;;;;29.40;54.76;99387.06;4933895;29;20042;-85
2023/07/26 09:24:57;;;;;;;30.88;12.88;;;;;;;29.52;55.33;99390.38;4934040;29;20020;-86
2023/07/26 09:27:23;;;;;;;29.10;13.48;;;;;;;29.59;55.33;99391.78;4941809;29;20447;-85
2023/07/26 09:29:56;;;;;;;28.92;12.95;;;;;;;29.77;55.33;99392.28;4942093;29;20107;-86
2023/07/26 09:32:29;;;;;;;23.70;13.45;;;;;;;29.68;55.94;99400.34;4919426;29;20035;-85
2023/07/26 09:34:59;;;;;;;27.02;14.25;;;;;;;29.69;55.59;99402.03;4936750;29;20024;-87
2023/07/26 09:37:25;;;;;;;39.20;13.48;;;;;;;29.72;55.39;99375.69;4934122;29;20027;-85
2023/07/26 09:39:50;;;;;;;32.78;13.95;;;;;;;29.69;56.10;99374.31;4933309;29;20408;-86
2023/07/26 09:42:16;;;;;;;28.98;14.25;;;;;;;29.90;55.44;99375.94;4932972;29;20073;-85
2023/07/26 09:44:45;;;;;;;34.42;14.43;;;;;;;29.94;54.55;99359.56;4933476;29;20068;-85
2023/07/26 09:47:11;;;;;;;32.35;14.88;;;;;;;30.01;53.52;99374.78;4933630;29;20110;-86
2023/07/26 09:49:49;;;;;;;29.20;13.50;;;;;;;30.12;54.31;99368.09;4932967;29;20115;-85
2023/07/26 09:52:19;;;;;;;22.35;12.73;;;;;;;30.22;53.52;99345.88;4933034;29;20175;-85
2023/07/26 09:54:46;;;;;;;29.88;14.05;;;;;;;30.40;53.65;99346.38;4933291;29;20024;-85
2023/07/26 09:57:14;;;;;;;28.58;12.82;;;;;;;30.54;54.09;99358.53;4933868;29;20031;-85
2023/07/26 09:59:40;;;;;;;35.22;13.65;;;;;;;30.62;53.95;99360.69;4937305;29;20023;-87
2023/07/26 10:02:09;;;;;;;26.27;13.32;;;;;;;30.74;54.01;99350.88;4935458;29;20055;-85
2023/07/26 10:04:53;;;;;;;41.15;15.15;;;;;;;30.97;53.51;99354.09;4932819;29;20032;-86
2023/07/26 10:07:20;;;;;;;35.03;14.60;;;;;;;31.12;52.65;99356.78;4916014;29;20028;-85
2023/07/26 10:09:47;;;;;;;35.33;14.13;;;;;;;31.19;51.98;99332.28;4931654;29;20023;-85
2023/07/26 10:12:14;;;;;;;36.20;14.70;;;;;;;31.32;52.32;99325.19;4933199;29;20031;-86
2023/07/26 10:14:41;;;;;;;31.98;14.95;;;;;;;31.53;52.30;99343.38;4933614;29;20020;-86
2023/07/26 10:17:07;;;;;;;50.95;15.65;;;;;;;31.60;52.20;99338.28;4935176;29;20385;-85
2023/07/26 10:19:35;;;;;;;30.08;15.07;;;;;;;31.62;51.18;99327.72;4932226;29;20038;-85
2023/07/26 10:22:01;;;;;;;43.78;14.85;;;;;;;31.47;51.64;99325.03;4933030;29;20027;-85
2023/07/26 10:24:30;;;;;;;27.90;12.45;;;;;;;31.52;51.83;99336.16;4932849;29;20115;-84
2023/07/26 10:26:56;;;;;;;30.98;14.52;;;;;;;31.46;52.32;99315.06;4932510;29;20023;-84
2023/07/26 10:29:22;;;;;;;48.15;15.57;;;;;;;31.42;52.37;99312.03;4932558;29;20092;-84
2023/07/26 10:31:58;;;;;;;25.52;13.88;;;;;;;31.40;52.85;99313.47;4932487;29;20492;-85
2023/07/26 10:34:24;;;;;;;44.25;14.55;;;;;;;31.53;52.17;99315.59;4932942;29;20027;-84
2023/07/26 10:36:52;;;;;;;32.20;14.80;;;;;;;31.52;52.34;99314.75;4932362;29;20035;-85
2023/07/26 10:39:28;;;;;;;67.68;18.10;;;;;;;31.54;52.49;99306.09;4932799;29;20028;-84
2023/07/26 10:41:54;;;;;;;44.22;14.88;;;;;;;31.49;52.63;99312.56;4933173;29;20035;-85
2023/07/26 10:44:19;;;;;;;26.13;13.23;;;;;;;31.32;52.52;99302.97;4932827;29;20028;-83
2023/07/26 10:47:14;;;;;;;30.08;13.80;;;;;;;31.20;53.00;99303.34;4932977;29;20034;-84
2023/07/26 10:49:45;;;;;;;25.08;14.05;;;;;;;31.04;54.79;99291.53;4854922;29;20543;-84
2023/07/26 10:52:11;;;;;;;32.97;13.60;;;;;;;31.08;54.86;99297.34;4854968;29;20542;-83
2023/07/26 10:54:50;;;;;;;46.05;14.93;;;;;;;31.30;54.08;99283.81;4863798;29;20075;-84
2023/07/26 10:57:28;;;;;;;38.60;13.98;;;;;;;31.37;52.89;99277.91;4859337;29;20142;-83
2023/07/26 11:00:06;;;;;;;36.28;14.95;;;;;;;31.47;53.50;99273.06;4855242;29;20157;-85
2023/07/26 11:02:39;;;;;;;38.58;15.23;;;;;;;31.53;53.68;99282.22;4854557;29;20082;-84
2023/07/26 11:05:16;;;;;;;29.25;14.75;;;;;;;31.46;53.42;99265.03;4854620;29;20025;-84
2023/07/26 11:08:04;;;;;;;33.88;14.55;;;;;;;31.42;55.00;99275.06;4855414;29;20855;-83
2023/07/26 11:10:29;;;;;;;29.58;14.38;;;;;;;31.60;54.25;99277.13;4855264;29;20088;-84
2023/07/26 11:13:18;;;;;;;31.17;16.10;;;;;;;31.68;54.10;99279.28;4855367;29;20049;-84
2023/07/26 11:15:43;;;;;;;41.03;16.50;;;;;;;31.69;54.94;99278.97;4855561;29;20059;-83
2023/07/26 11:18:10;;;;;;;31.65;14.70;;;;;;;31.88;54.29;99270.69;4857055;29;20048;-82